Time;durP1;ratioP1;P1;durP2;ratioP2;P2;SDS_P1;SDS_P2;PMS_P1;PMS_P2;Temp;Humidity;BMP_temperature;BMP_pressure;BME280_temperature;BME280_humidity;BME280_pressure;Samples;Min_cycle;Max_cycle;Signal;HPM_P1;HPM_P2
2023/05/29 00:00:25;;;;;;;6.83;2.53;;;;;;;12.46;100.00;102307.56;5008151;28;20211;-74
2023/05/29 00:02:51;;;;;;;7.50;3.00;;;;;;;12.47;100.00;102306.72;4992856;28;20601;-73
2023/05/29 00:05:17;;;;;;;9.97;2.83;;;;;;;12.43;100.00;102310.00;5010718;28;20202;-73
2023/05/29 00:07:43;;;;;;;7.90;2.47;;;;;;;12.42;100.00;102303.13;4990534;28;20206;-73
2023/05/29 00:10:10;;;;;;;9.30;2.60;;;;;;;12.40;100.00;102306.47;5007830;28;20246;-74
2023/05/29 00:12:37;;;;;;;7.30;2.90;;;;;;;12.39;100.00;102300.44;5005296;28;20743;-73
2023/05/29 00:15:05;;;;;;;8.00;2.70;;;;;;;12.33;100.00;102307.06;4989686;28;20641;-74
2023/05/29 00:17:34;;;;;;;14.37;3.33;;;;;;;12.25;100.00;102319.63;5009025;28;20198;-73
2023/05/29 00:20:01;;;;;;;10.07;2.87;;;;;;;12.27;100.00;102311.97;5005567;28;20219;-73
2023/05/29 00:22:27;;;;;;;6.60;3.07;;;;;;;12.25;100.00;102311.91;5008513;28;20186;-74
2023/05/29 00:24:53;;;;;;;7.80;3.00;;;;;;;12.23;100.00;102310.13;5007728;28;20249;-74
2023/05/29 00:27:19;;;;;;;8.73;2.40;;;;;;;12.17;100.00;102322.75;5003722;28;20609;-73
2023/05/29 00:29:45;;;;;;;8.33;3.00;;;;;;;12.14;100.00;102326.06;5007623;28;20307;-74
2023/05/29 00:32:10;;;;;;;9.10;2.70;;;;;;;12.11;100.00;102325.06;4976316;28;20300;-73
2023/05/29 00:34:36;;;;;;;8.37;3.00;;;;;;;12.11;100.00;102322.50;5009801;28;20673;-73
2023/05/29 00:37:02;;;;;;;9.53;3.07;;;;;;;12.08;100.00;102341.25;5007793;28;20206;-74
2023/05/29 00:39:27;;;;;;;9.27;2.43;;;;;;;12.03;100.00;102345.31;4992320;28;20195;-74
2023/05/29 00:41:53;;;;;;;8.50;2.97;;;;;;;12.00;100.00;102349.47;5008286;28;20772;-73
2023/05/29 00:44:19;;;;;;;6.73;2.53;;;;;;;12.05;100.00;102347.97;4981682;28;20638;-73
2023/05/29 00:46:50;;;;;;;11.40;2.50;;;;;;;12.02;100.00;102360.66;4992556;28;20281;-73
2023/05/29 00:49:17;;;;;;;8.07;2.53;;;;;;;12.06;100.00;102363.44;5021906;28;20202;-73
2023/05/29 00:51:43;;;;;;;9.33;2.53;;;;;;;12.06;100.00;102376.25;4990058;28;20191;-73
2023/05/29 00:54:12;;;;;;;9.40;2.50;;;;;;;12.06;100.00;102367.69;4991856;28;20211;-73
2023/05/29 00:56:39;;;;;;;10.77;2.77;;;;;;;12.07;100.00;102367.75;4991803;28;20206;-73
2023/05/29 00:59:05;;;;;;;9.73;2.87;;;;;;;12.10;100.00;102367.88;4986894;28;20205;-73
2023/05/29 01:01:32;;;;;;;8.23;2.70;;;;;;;12.07;100.00;102383.16;4991736;28;20215;-73
2023/05/29 01:04:00;;;;;;;10.87;2.97;;;;;;;12.09;100.00;102375.50;4991722;28;20183;-73
2023/05/29 01:06:26;;;;;;;11.40;3.03;;;;;;;12.09;100.00;102390.91;4992223;28;20290;-73
2023/05/29 01:08:52;;;;;;;7.47;2.77;;;;;;;12.10;100.00;102390.09;4975775;28;20282;-74
2023/05/29 01:11:25;;;;;;;11.07;2.77;;;;;;;12.10;100.00;102383.28;4990446;28;20870;-73
2023/05/29 01:13:55;;;;;;;10.43;3.23;;;;;;;12.03;100.00;102390.69;4975247;28;20218;-73
2023/05/29 01:16:30;;;;;;;12.00;3.00;;;;;;;12.03;100.00;102388.97;4991479;28;20261;-73
2023/05/29 01:19:33;;;;;;;10.63;3.10;;;;;;;12.00;100.00;102377.72;4987218;28;20291;-74
2023/05/29 01:22:11;;;;;;;7.17;2.30;;;;;;;11.92;100.00;102384.25;4985151;28;20214;-73
2023/05/29 01:24:50;;;;;;;9.47;2.30;;;;;;;11.96;100.00;102380.97;4989451;28;20617;-73
2023/05/29 01:27:17;;;;;;;9.87;2.90;;;;;;;11.90;100.00;102393.59;5005139;28;20249;-74
2023/05/29 01:29:43;;;;;;;8.30;2.70;;;;;;;11.82;100.00;102418.97;4988054;28;20588;-74
2023/05/29 01:32:10;;;;;;;11.40;2.43;;;;;;;11.81;100.00;102406.94;5021091;28;20225;-73
2023/05/29 01:34:37;;;;;;;11.27;3.20;;;;;;;11.75;100.00;102393.84;5008922;28;20265;-73
2023/05/29 01:37:02;;;;;;;8.17;2.90;;;;;;;11.75;100.00;102391.28;5007421;28;20830;-74
2023/05/29 01:39:29;;;;;;;15.43;3.50;;;;;;;11.71;100.00;102397.13;5003210;28;20195;-73
2023/05/29 01:41:55;;;;;;;9.20;2.87;;;;;;;11.65;100.00;102396.88;4983253;28;20245;-74
2023/05/29 01:44:23;;;;;;;14.67;2.67;;;;;;;11.66;100.00;102402.91;5019248;28;20202;-73
2023/05/29 01:46:49;;;;;;;9.40;2.47;;;;;;;11.66;100.00;102392.63;5009123;28;20273;-73
2023/05/29 01:49:15;;;;;;;12.17;3.00;;;;;;;11.58;100.00;102404.25;4990934;28;20203;-73
2023/05/29 01:51:41;;;;;;;10.67;2.47;;;;;;;11.53;100.00;102410.88;4990289;28;20258;-73
2023/05/29 01:54:07;;;;;;;11.63;2.30;;;;;;;11.38;100.00;102406.00;4991151;28;20227;-73
2023/05/29 01:56:33;;;;;;;15.27;3.17;;;;;;;11.30;100.00;102409.91;5001900;28;20218;-73
2023/05/29 01:59:01;;;;;;;10.53;2.70;;;;;;;11.31;100.00;102400.56;4989720;28;20302;-73
2023/05/29 02:01:27;;;;;;;16.23;3.10;;;;;;;11.30;100.00;102412.47;4990640;28;20218;-74
2023/05/29 02:03:52;;;;;;;11.30;2.50;;;;;;;11.25;100.00;102411.41;5008497;28;20187;-73
2023/05/29 02:06:18;;;;;;;11.73;2.73;;;;;;;11.23;100.00;102412.16;4985323;28;20645;-72
2023/05/29 02:08:43;;;;;;;14.23;3.27;;;;;;;11.11;100.00;102427.06;4990624;28;20199;-73
2023/05/29 02:11:09;;;;;;;15.93;3.17;;;;;;;11.15;100.00;102414.41;4988493;28;20223;-73
2023/05/29 02:13:35;;;;;;;11.80;3.03;;;;;;;11.08;100.00;102419.22;5019300;28;20293;-74
2023/05/29 02:16:00;;;;;;;9.07;2.97;;;;;;;11.03;100.00;102428.41;5006146;28;20544;-73
2023/05/29 02:18:26;;;;;;;12.80;3.50;;;;;;;10.94;100.00;102435.69;5008327;28;20229;-73
2023/05/29 02:20:51;;;;;;;11.23;3.20;;;;;;;10.90;100.00;102428.69;4974202;28;20305;-73
2023/05/29 02:23:21;;;;;;;11.20;2.90;;;;;;;10.83;100.00;102434.38;4988074;28;20205;-73
2023/05/29 02:25:46;;;;;;;12.77;2.90;;;;;;;10.79;100.00;102424.78;4990482;28;20202;-73
2023/05/29 02:28:12;;;;;;;15.73;3.23;;;;;;;10.73;100.00;102419.41;4992071;28;20191;-73
2023/05/29 02:30:38;;;;;;;10.27;3.10;;;;;;;10.73;100.00;102416.84;4989766;28;20215;-73
2023/05/29 02:33:04;;;;;;;15.00;2.70;;;;;;;10.71;100.00;102414.22;5008554;28;20240;-73
2023/05/29 02:35:32;;;;;;;14.73;2.80;;;;;;;10.67;100.00;102426.81;4990400;28;20198;-74
2023/05/29 02:37:58;;;;;;;13.10;3.63;;;;;;;10.65;100.00;102429.28;5007977;28;20210;-74
2023/05/29 02:40:23;;;;;;;14.07;3.13;;;;;;;10.59;100.00;102426.47;4999466;28;20214;-73
2023/05/29 02:42:50;;;;;;;12.70;3.10;;;;;;;10.45;100.00;102436.88;5011354;28;20186;-74
2023/05/29 02:45:15;;;;;;;10.97;3.30;;;;;;;10.47;100.00;102428.47;5015009;28;20299;-73
2023/05/29 02:47:41;;;;;;;10.87;2.93;;;;;;;10.42;100.00;102431.66;4996488;28;20190;-74
2023/05/29 02:50:08;;;;;;;12.77;2.73;;;;;;;10.41;100.00;102424.78;4997209;28;20226;-74
2023/05/29 02:52:34;;;;;;;12.27;2.90;;;;;;;10.30;100.00;102424.28;5014176;28;20213;-74
2023/05/29 02:55:00;;;;;;;13.87;3.40;;;;;;;10.34;100.00;102430.41;5013044;28;20195;-73
2023/05/29 02:57:25;;;;;;;14.37;2.90;;;;;;;10.23;100.00;102431.63;5013136;28;20202;-73
2023/05/29 02:59:54;;;;;;;9.83;2.90;;;;;;;10.23;100.00;102429.91;4996724;28;20296;-73
2023/05/29 03:02:20;;;;;;;13.80;2.80;;;;;;;10.19;100.00;102424.59;5013663;28;20198;-74
2023/05/29 03:04:46;;;;;;;12.03;2.70;;;;;;;10.15;100.00;102432.94;4996864;28;20206;-73
2023/05/29 03:07:12;;;;;;;13.13;3.70;;;;;;;10.06;100.00;102432.50;5026037;28;20191;-74
2023/05/29 03:09:38;;;;;;;12.33;3.93;;;;;;;10.05;100.00;102438.44;4995445;28;20209;-73
2023/05/29 03:12:04;;;;;;;13.60;3.07;;;;;;;10.02;100.00;102436.59;4995973;28;20215;-73
2023/05/29 03:14:35;;;;;;;12.50;2.50;;;;;;;9.98;100.00;102438.91;4996436;28;20202;-73
2023/05/29 03:17:06;;;;;;;14.33;3.63;;;;;;;10.00;100.00;102433.06;4997215;28;20195;-73
2023/05/29 03:19:32;;;;;;;10.80;3.00;;;;;;;9.97;100.00;102439.72;4997003;28;20219;-73
2023/05/29 03:21:57;;;;;;;12.17;3.27;;;;;;;9.89;100.00;102444.47;4995378;28;20665;-73
2023/05/29 03:24:23;;;;;;;10.50;3.27;;;;;;;9.91;100.00;102445.41;4979688;28;20784;-73
2023/05/29 03:26:49;;;;;;;10.50;2.77;;;;;;;9.85;100.00;102447.69;4996992;28;20211;-74
2023/05/29 03:29:16;;;;;;;15.33;2.90;;;;;;;9.85;100.00;102444.25;4996882;28;20282;-73
2023/05/29 03:31:42;;;;;;;14.30;3.30;;;;;;;9.87;100.00;102440.94;5025106;28;20289;-73
2023/05/29 03:34:08;;;;;;;12.77;3.17;;;;;;;9.83;100.00;102448.41;4996761;28;20630;-73
2023/05/29 03:36:49;;;;;;;15.87;3.03;;;;;;;9.77;100.00;102435.34;5027330;28;20337;-73
2023/05/29 03:39:15;;;;;;;13.13;3.03;;;;;;;9.87;100.00;102422.19;4994487;28;20198;-74
2023/05/29 03:41:40;;;;;;;15.37;3.13;;;;;;;9.83;100.00;102433.97;5027323;28;20241;-74
2023/05/29 03:44:06;;;;;;;13.30;2.90;;;;;;;9.88;100.00;102432.50;4996163;28;20194;-73
2023/05/29 03:46:31;;;;;;;10.77;2.80;;;;;;;9.79;100.00;102442.28;4995957;28;20187;-73
2023/05/29 03:48:58;;;;;;;10.13;2.60;;;;;;;9.75;100.00;102445.50;4995881;28;20226;-74
2023/05/29 03:51:24;;;;;;;15.60;3.63;;;;;;;9.80;100.00;102444.03;4992133;28;20242;-74
2023/05/29 03:53:52;;;;;;;11.70;3.07;;;;;;;9.83;100.00;102450.97;4979828;28;20218;-73
2023/05/29 03:56:17;;;;;;;14.50;3.30;;;;;;;9.84;100.00;102452.72;4990542;28;20183;-74
2023/05/29 03:58:43;;;;;;;13.70;2.63;;;;;;;9.84;100.00;102457.84;4996395;28;20199;-74
2023/05/29 04:01:09;;;;;;;16.17;3.47;;;;;;;9.89;100.00;102459.81;4977004;28;20219;-74
2023/05/29 04:03:35;;;;;;;17.87;3.60;;;;;;;9.88;100.00;102460.63;4978911;28;20294;-74
2023/05/29 04:06:00;;;;;;;11.70;2.70;;;;;;;9.87;100.00;102463.13;5008638;28;20244;-73
2023/05/29 04:08:26;;;;;;;14.30;3.50;;;;;;;9.84;100.00;102465.50;5022986;28;20214;-73
2023/05/29 04:10:53;;;;;;;12.83;3.37;;;;;;;9.93;100.00;102464.28;4994177;28;20734;-73
2023/05/29 04:13:21;;;;;;;12.73;3.57;;;;;;;9.95;100.00;102472.03;4992930;28;20688;-74
2023/05/29 04:15:46;;;;;;;11.43;2.90;;;;;;;9.99;100.00;102468.81;4992314;28;20214;-73
2023/05/29 04:18:12;;;;;;;16.43;3.67;;;;;;;10.00;100.00;102476.56;4993181;28;20199;-73
2023/05/29 04:20:37;;;;;;;15.47;3.17;;;;;;;10.05;100.00;102476.81;4992555;28;20226;-73
2023/05/29 04:23:03;;;;;;;11.93;3.13;;;;;;;10.07;100.00;102475.19;4990357;28;20194;-73
2023/05/29 04:25:29;;;;;;;14.30;4.13;;;;;;;10.07;100.00;102478.66;4988468;28;20329;-73
2023/05/29 04:27:54;;;;;;;13.97;3.67;;;;;;;10.15;100.00;102479.00;4992646;28;20293;-73
2023/05/29 04:30:21;;;;;;;13.53;3.80;;;;;;;10.20;100.00;102477.53;4992394;28;20297;-74
2023/05/29 04:32:48;;;;;;;11.00;2.93;;;;;;;10.18;100.00;102480.03;4976179;28;20639;-73
2023/05/29 04:35:13;;;;;;;10.10;2.63;;;;;;;10.23;100.00;102482.81;4992686;28;20210;-73
2023/05/29 04:37:46;;;;;;;12.23;3.37;;;;;;;10.31;100.00;102481.47;4977114;28;20198;-73
2023/05/29 04:40:17;;;;;;;16.63;3.13;;;;;;;10.28;100.00;102495.00;4991487;28;20250;-73
2023/05/29 04:42:45;;;;;;;11.63;2.80;;;;;;;10.34;100.00;102489.31;4971623;28;20190;-73
2023/05/29 04:45:11;;;;;;;15.53;3.70;;;;;;;10.36;100.00;102486.00;4991931;28;20684;-74
2023/05/29 04:47:43;;;;;;;15.33;3.67;;;;;;;10.41;100.00;102471.72;4992379;28;20199;-73
2023/05/29 04:50:13;;;;;;;16.50;3.47;;;;;;;10.42;100.00;102475.19;5000393;28;20253;-73
2023/05/29 04:52:41;;;;;;;14.33;3.77;;;;;;;10.45;100.00;102467.63;4991965;28;20215;-73
2023/05/29 04:55:10;;;;;;;12.10;3.47;;;;;;;10.46;100.00;102479.63;4988699;28;20187;-73
2023/05/29 04:57:35;;;;;;;13.77;3.27;;;;;;;10.54;100.00;102471.50;4991092;28;20684;-73
2023/05/29 05:00:06;;;;;;;14.80;3.00;;;;;;;10.62;100.00;102476.94;4988221;28;20337;-74
2023/05/29 05:02:33;;;;;;;14.47;3.17;;;;;;;10.69;100.00;102464.47;4991670;28;20641;-73
2023/05/29 05:04:59;;;;;;;13.30;3.07;;;;;;;10.86;100.00;102471.25;4991934;28;20199;-73
2023/05/29 05:07:24;;;;;;;14.00;3.83;;;;;;;10.92;100.00;102475.78;4991255;28;20194;-73
2023/05/29 05:09:50;;;;;;;11.53;3.07;;;;;;;11.06;100.00;102475.53;5003658;28;20703;-73
2023/05/29 05:12:20;;;;;;;13.67;3.03;;;;;;;11.17;100.00;102461.53;4991464;28;20369;-73
2023/05/29 05:14:46;;;;;;;17.57;3.70;;;;;;;11.21;100.00;102442.00;4990550;28;20191;-73
2023/05/29 05:17:12;;;;;;;11.20;3.20;;;;;;;11.33;100.00;102451.09;4991371;28;20633;-73
2023/05/29 05:19:37;;;;;;;14.37;3.40;;;;;;;11.47;100.00;102444.84;4992150;28;20222;-73
2023/05/29 05:22:03;;;;;;;12.33;3.10;;;;;;;11.54;100.00;102464.81;4991362;28;20214;-73
2023/05/29 05:24:28;;;;;;;15.80;3.70;;;;;;;11.52;100.00;102440.78;4993962;28;20183;-73
2023/05/29 05:26:55;;;;;;;14.03;3.37;;;;;;;11.67;100.00;102449.16;4974982;28;20241;-74
2023/05/29 05:29:21;;;;;;;13.53;3.03;;;;;;;11.78;100.00;102432.47;4975358;28;20218;-73
2023/05/29 05:31:46;;;;;;;19.30;3.63;;;;;;;11.77;100.00;102414.47;4974868;28;20847;-73
2023/05/29 05:34:12;;;;;;;15.23;3.47;;;;;;;11.92;100.00;102409.91;4984339;28;20334;-73
2023/05/29 05:36:38;;;;;;;15.63;3.70;;;;;;;12.06;100.00;102401.06;4991748;28;20187;-73
2023/05/29 05:39:09;;;;;;;14.17;3.13;;;;;;;12.08;100.00;102418.25;5019975;28;20195;-73
2023/05/29 05:41:36;;;;;;;13.20;3.33;;;;;;;11.89;100.00;102425.22;4989879;28;20234;-73
2023/05/29 05:44:02;;;;;;;16.07;3.57;;;;;;;11.98;100.00;102405.03;4990021;28;20297;-73
2023/05/29 05:46:37;;;;;;;16.07;3.60;;;;;;;12.16;100.00;102393.75;4988417;28;20250;-74
2023/05/29 05:49:03;;;;;;;24.63;3.70;;;;;;;12.18;100.00;102381.00;4991750;28;20956;-74
2023/05/29 05:51:30;;;;;;;15.13;3.53;;;;;;;12.27;100.00;102389.94;4990715;28;20214;-73
2023/05/29 05:53:56;;;;;;;10.90;3.23;;;;;;;12.44;100.00;102387.97;4995461;28;20218;-74
2023/05/29 05:56:22;;;;;;;14.90;3.50;;;;;;;12.55;100.00;102354.13;4994385;28;20183;-73
2023/05/29 05:58:49;;;;;;;16.37;3.43;;;;;;;12.56;100.00;102335.31;4995910;28;20692;-73
2023/05/29 06:01:18;;;;;;;13.70;3.13;;;;;;;12.44;100.00;102326.31;4994724;28;20268;-73
2023/05/29 06:03:44;;;;;;;16.63;3.33;;;;;;;12.60;100.00;102338.88;4992610;28;20240;-73
2023/05/29 06:06:09;;;;;;;13.10;3.47;;;;;;;12.72;100.00;102337.59;4971470;28;20198;-73
2023/05/29 06:08:40;;;;;;;15.90;3.73;;;;;;;12.94;100.00;102337.50;4997254;28;20223;-73
2023/05/29 06:11:05;;;;;;;15.27;3.53;;;;;;;13.07;100.00;102312.25;5010110;28;20751;-73
2023/05/29 06:13:33;;;;;;;16.37;3.83;;;;;;;13.16;100.00;102299.69;4988255;28;20218;-74
2023/05/29 06:16:05;;;;;;;13.33;3.30;;;;;;;13.31;100.00;102277.00;4988467;28;20191;-72
2023/05/29 06:18:31;;;;;;;14.40;3.47;;;;;;;13.38;100.00;102254.09;5008472;28;20576;-72
2023/05/29 06:20:56;;;;;;;18.47;3.67;;;;;;;13.58;100.00;102239.25;4974152;28;20305;-72
2023/05/29 06:23:22;;;;;;;17.17;3.43;;;;;;;13.75;100.00;102251.78;4990303;28;20633;-72
2023/05/29 06:25:49;;;;;;;20.70;4.27;;;;;;;13.73;100.00;102213.94;4989983;28;20190;-73
2023/05/29 06:28:15;;;;;;;13.93;3.30;;;;;;;13.77;100.00;102206.34;4988808;28;20191;-72
2023/05/29 06:30:40;;;;;;;12.33;3.07;;;;;;;13.78;100.00;102189.19;4990081;28;20323;-72
2023/05/29 06:33:07;;;;;;;15.97;3.60;;;;;;;13.77;100.00;102220.94;4993450;28;20211;-72
2023/05/29 06:35:34;;;;;;;12.93;3.60;;;;;;;13.87;100.00;102190.34;4994275;28;20237;-73
2023/05/29 06:38:00;;;;;;;10.13;3.10;;;;;;;14.15;100.00;102161.91;4974139;28;20280;-72
2023/05/29 06:40:26;;;;;;;19.60;4.67;;;;;;;14.33;100.00;102146.97;4993321;28;20223;-73
2023/05/29 06:42:51;;;;;;;12.77;3.27;;;;;;;14.42;100.00;102157.50;4990378;28;20187;-72
2023/05/29 06:45:17;;;;;;;17.17;3.80;;;;;;;14.31;100.00;102122.00;4978023;28;20199;-72
2023/05/29 06:47:43;;;;;;;14.20;3.27;;;;;;;14.51;100.00;102126.75;4991863;28;20197;-73
2023/05/29 06:50:09;;;;;;;12.20;3.97;;;;;;;14.80;100.00;102130.91;4996240;28;20217;-73
2023/05/29 06:52:36;;;;;;;15.97;2.97;;;;;;;14.63;96.46;102113.28;4995429;28;20222;-73
2023/05/29 06:55:40;;;;;;;13.70;3.17;;;;;;;14.53;96.82;102135.44;4988313;28;20203;-73
2023/05/29 06:58:06;;;;;;;11.53;2.93;;;;;;;14.60;100.00;102194.00;5013004;28;20237;-73
2023/05/29 07:00:32;;;;;;;14.77;3.27;;;;;;;14.52;93.43;102119.91;5003981;28;20210;-73
2023/05/29 07:03:17;;;;;;;13.47;3.27;;;;;;;14.78;96.22;102137.72;4987505;28;20237;-73
2023/05/29 07:05:44;;;;;;;10.90;3.57;;;;;;;15.07;88.77;102099.69;4994426;28;20540;-73
2023/05/29 07:08:09;;;;;;;13.70;3.63;;;;;;;15.02;87.04;102120.25;4977021;28;20198;-73
2023/05/29 07:10:35;;;;;;;14.83;4.27;;;;;;;15.36;91.29;102151.13;5008165;28;20242;-73
2023/05/29 07:13:00;;;;;;;14.20;3.87;;;;;;;15.46;95.35;102172.81;4996512;28;20273;-73
2023/05/29 07:15:26;;;;;;;12.30;3.47;;;;;;;15.75;93.12;102163.97;4994171;28;20306;-73
2023/05/29 07:17:52;;;;;;;13.83;4.23;;;;;;;15.69;87.34;102145.75;4976820;28;20342;-73
2023/05/29 07:20:22;;;;;;;14.67;3.57;;;;;;;15.75;86.49;102146.75;4993325;28;20238;-73
2023/05/29 07:22:48;;;;;;;9.00;3.10;;;;;;;16.06;88.36;102169.75;4991234;28;20219;-74
2023/05/29 07:25:14;;;;;;;13.27;3.50;;;;;;;15.91;79.63;102130.72;4994725;28;20199;-73
2023/05/29 07:27:40;;;;;;;9.40;3.20;;;;;;;16.21;82.44;102151.06;5002404;28;20264;-74
2023/05/29 07:30:07;;;;;;;11.77;3.20;;;;;;;16.45;84.08;102165.31;4998924;28;20677;-73
2023/05/29 07:32:34;;;;;;;11.97;3.43;;;;;;;16.33;83.14;102156.41;4983642;28;20215;-74
2023/05/29 07:34:59;;;;;;;14.53;3.80;;;;;;;15.99;82.25;102162.72;5000473;28;20206;-74
2023/05/29 07:37:25;;;;;;;16.60;3.97;;;;;;;16.01;86.23;102210.13;5014545;28;20195;-74
2023/05/29 07:39:52;;;;;;;11.47;3.50;;;;;;;16.56;77.72;102158.59;4996409;28;20218;-74
2023/05/29 07:42:37;;;;;;;10.57;3.10;;;;;;;16.53;70.87;102137.00;5010724;28;20211;-75
2023/05/29 07:45:03;;;;;;;11.30;3.33;;;;;;;16.70;72.12;102162.25;5004243;28;20201;-73
2023/05/29 07:47:28;;;;;;;10.97;3.30;;;;;;;16.80;74.13;102171.91;4999635;28;20195;-73
2023/05/29 07:49:54;;;;;;;9.87;3.43;;;;;;;16.98;68.80;102155.78;4984888;28;20210;-74
2023/05/29 07:52:23;;;;;;;15.87;3.40;;;;;;;17.07;69.46;102208.56;4993248;28;20229;-74
2023/05/29 07:54:48;;;;;;;10.27;3.50;;;;;;;17.00;62.88;102183.41;5021688;28;20219;-73
2023/05/29 07:57:14;;;;;;;12.13;3.50;;;;;;;17.42;65.70;102214.28;5000345;28;20253;-74
2023/05/29 07:59:42;;;;;;;8.53;3.07;;;;;;;17.28;64.61;102205.41;4996786;28;20214;-75
2023/05/29 08:02:08;;;;;;;13.90;3.97;;;;;;;17.26;62.70;102220.03;5016273;28;20281;-74
2023/05/29 08:04:50;;;;;;;9.83;3.03;;;;;;;17.70;66.76;102263.00;4998668;28;20201;-74
2023/05/29 08:07:15;;;;;;;12.20;3.60;;;;;;;17.63;64.66;102250.81;4997069;28;20199;-74
2023/05/29 08:09:41;;;;;;;12.93;3.40;;;;;;;17.66;61.52;102224.94;4992947;28;20215;-74
2023/05/29 08:12:06;;;;;;;13.97;3.33;;;;;;;17.77;61.55;102236.34;4986726;28;20261;-74
2023/05/29 08:14:32;;;;;;;17.53;3.30;;;;;;;17.77;62.21;102241.53;4992779;28;20187;-74
2023/05/29 08:16:59;;;;;;;12.67;3.50;;;;;;;17.88;60.99;102232.16;4987834;28;20191;-75
2023/05/29 08:19:25;;;;;;;14.60;3.53;;;;;;;17.87;62.32;102236.44;4977291;28;20648;-74
2023/05/29 08:21:51;;;;;;;14.83;3.33;;;;;;;17.68;62.77;102249.19;5009720;28;20195;-73
2023/05/29 08:24:16;;;;;;;15.00;3.37;;;;;;;18.00;61.17;102240.06;5010114;28;20266;-73
2023/05/29 08:26:43;;;;;;;13.87;3.17;;;;;;;18.34;58.21;102224.91;4999434;28;20195;-72
2023/05/29 08:29:09;;;;;;;9.23;3.47;;;;;;;18.01;54.28;102245.25;5011656;28;20195;-73
2023/05/29 08:31:34;;;;;;;11.93;3.27;;;;;;;18.25;56.33;102279.28;5002348;28;20210;-73
2023/05/29 08:34:00;;;;;;;18.63;4.00;;;;;;;18.70;56.02;102271.09;5010760;28;20223;-76
2023/05/29 08:36:25;;;;;;;13.17;3.47;;;;;;;18.86;56.05;102272.97;5009583;28;20206;-75
2023/05/29 08:38:51;;;;;;;11.07;3.77;;;;;;;18.72;54.56;102278.06;4998380;28;20241;-74
2023/05/29 08:41:25;;;;;;;11.63;3.93;;;;;;;18.85;55.04;102285.09;5010424;28;20214;-74
2023/05/29 08:43:52;;;;;;;11.97;3.90;;;;;;;18.95;55.76;102299.91;4989222;28;20648;-75
2023/05/29 08:46:19;;;;;;;14.20;3.83;;;;;;;18.85;53.93;102298.09;4992530;28;20202;-73
2023/05/29 08:48:49;;;;;;;11.27;3.13;;;;;;;18.89;52.95;102330.13;5010854;28;20191;-74
2023/05/29 08:51:20;;;;;;;10.20;2.90;;;;;;;19.05;51.97;102321.59;4993789;28;20215;-75
2023/05/29 08:53:46;;;;;;;11.43;3.60;;;;;;;19.24;52.85;102329.59;5009583;28;20238;-74
2023/05/29 08:56:12;;;;;;;10.80;3.30;;;;;;;19.25;51.43;102314.91;5009689;28;20241;-75
2023/05/29 08:58:38;;;;;;;12.83;3.30;;;;;;;19.25;50.84;102320.94;4998299;28;20202;-73
2023/05/29 09:01:04;;;;;;;12.00;3.37;;;;;;;19.47;52.17;102334.97;5010225;28;20254;-75
2023/05/29 09:03:29;;;;;;;12.60;3.73;;;;;;;19.70;50.99;102323.88;5010054;28;20211;-74
2023/05/29 09:05:59;;;;;;;10.67;3.10;;;;;;;19.60;49.25;102316.88;5006836;28;21007;-74
2023/05/29 09:08:26;;;;;;;12.10;3.37;;;;;;;19.80;50.36;102346.44;4960765;28;20273;-75
2023/05/29 09:10:51;;;;;;;9.63;3.47;;;;;;;19.82;48.47;102320.47;5010274;28;20589;-75
2023/05/29 09:13:17;;;;;;;14.73;3.53;;;;;;;19.92;49.91;102340.44;4992449;28;20310;-76
2023/05/29 09:15:42;;;;;;;13.50;3.43;;;;;;;20.13;48.40;102318.03;5010535;28;20194;-74
2023/05/29 09:18:08;;;;;;;12.50;3.73;;;;;;;20.18;47.11;102320.66;5010494;28;20811;-74
2023/05/29 09:20:34;;;;;;;11.50;3.40;;;;;;;20.24;47.28;102331.09;4975966;28;20241;-75
2023/05/29 09:23:02;;;;;;;11.37;3.03;;;;;;;20.33;49.58;102360.63;4994839;28;20231;-73
2023/05/29 09:25:30;;;;;;;15.60;4.07;;;;;;;20.56;47.71;102345.09;5009945;28;20242;-74
2023/05/29 09:28:02;;;;;;;9.60;3.53;;;;;;;20.40;45.77;102325.94;4992499;28;20194;-74
2023/05/29 09:30:41;;;;;;;10.07;3.37;;;;;;;20.57;46.75;102359.84;5022509;28;20273;-75
2023/05/29 09:33:12;;;;;;;15.13;3.87;;;;;;;20.63;45.77;102344.25;5007671;28;20219;-74
2023/05/29 09:35:40;;;;;;;9.37;2.73;;;;;;;20.79;46.25;102344.28;5009491;28;20592;-74
2023/05/29 09:38:10;;;;;;;13.20;3.40;;;;;;;20.93;47.60;102371.25;5008237;28;20664;-76
2023/05/29 09:40:37;;;;;;;12.17;3.70;;;;;;;20.92;46.35;102353.84;5009572;28;20218;-75
2023/05/29 09:43:04;;;;;;;10.60;3.03;;;;;;;20.61;47.26;102345.97;5009712;28;20183;-74
2023/05/29 09:45:30;;;;;;;15.83;3.77;;;;;;;20.56;46.88;102330.34;4991899;28;20191;-74
2023/05/29 09:47:56;;;;;;;17.17;3.80;;;;;;;20.92;47.84;102376.44;4995955;28;20190;-75
2023/05/29 09:50:26;;;;;;;11.07;3.30;;;;;;;20.53;46.00;102335.53;5009186;28;20608;-73
2023/05/29 09:52:53;;;;;;;15.90;3.60;;;;;;;21.02;47.51;102383.41;4988484;28;20262;-74
2023/05/29 09:55:23;;;;;;;9.07;2.90;;;;;;;21.28;45.83;102348.66;4991575;28;20195;-73
2023/05/29 09:57:49;;;;;;;7.87;2.90;;;;;;;21.21;45.04;102327.81;5005111;28;20678;-74
2023/05/29 10:00:17;;;;;;;12.00;3.53;;;;;;;21.74;45.71;102352.16;5009618;28;20214;-75
2023/05/29 10:02:42;;;;;;;8.93;2.80;;;;;;;21.67;44.91;102324.28;4987581;28;20192;-77
2023/05/29 10:05:09;;;;;;;13.93;3.57;;;;;;;21.61;45.43;102338.22;4992180;28;20594;-73
2023/05/29 10:07:36;;;;;;;14.63;3.57;;;;;;;21.44;44.55;102333.91;4976270;28;20202;-74
2023/05/29 10:10:05;;;;;;;8.73;2.83;;;;;;;21.71;44.79;102350.41;4976382;28;20217;-74
2023/05/29 10:12:37;;;;;;;12.07;3.43;;;;;;;21.93;44.30;102331.19;4991850;28;20226;-74
2023/05/29 10:15:04;;;;;;;12.73;3.60;;;;;;;21.94;44.24;102332.09;5009457;28;20198;-73
2023/05/29 10:17:34;;;;;;;10.63;3.37;;;;;;;21.76;43.22;102299.09;5007952;28;20191;-73
2023/05/29 10:20:02;;;;;;;9.53;3.40;;;;;;;21.85;44.72;102333.00;4991504;28;20219;-74
2023/05/29 10:22:29;;;;;;;9.93;3.37;;;;;;;21.89;43.66;102323.41;4997386;28;20201;-73
2023/05/29 10:24:56;;;;;;;11.57;3.20;;;;;;;22.11;44.01;102314.63;5008035;28;20294;-73
2023/05/29 10:27:22;;;;;;;10.20;3.23;;;;;;;21.67;45.11;102363.41;4991451;28;20209;-74
2023/05/29 10:29:58;;;;;;;10.60;3.30;;;;;;;22.11;44.16;102341.59;5009098;28;20289;-74
2023/05/29 10:32:29;;;;;;;8.63;3.30;;;;;;;22.35;45.53;102364.13;4985527;28;20249;-74
2023/05/29 10:35:17;;;;;;;9.27;2.87;;;;;;;22.43;44.15;102313.59;5009413;28;20683;-73
2023/05/29 10:37:52;;;;;;;9.50;2.90;;;;;;;22.47;42.16;102303.16;4986662;28;20210;-74
2023/05/29 10:40:23;;;;;;;10.60;3.20;;;;;;;22.19;42.68;102307.59;5008263;28;20268;-74
2023/05/29 10:42:53;;;;;;;11.80;3.27;;;;;;;22.65;42.50;102311.75;4993590;28;20656;-73
2023/05/29 10:45:35;;;;;;;9.30;3.07;;;;;;;22.76;42.62;102306.44;5008701;28;20202;-74
2023/05/29 10:48:07;;;;;;;9.43;2.90;;;;;;;22.92;42.45;102306.31;4977425;28;20818;-76
2023/05/29 10:50:51;;;;;;;10.80;3.20;;;;;;;22.95;40.46;102281.91;4990750;28;20214;-73
2023/05/29 10:53:22;;;;;;;10.37;2.97;;;;;;;22.94;40.42;102293.25;5008825;28;20320;-73
2023/05/29 10:55:47;;;;;;;12.90;3.03;;;;;;;22.86;41.42;102331.63;5001688;28;20195;-72
2023/05/29 10:58:22;;;;;;;14.93;2.77;;;;;;;22.52;39.91;102290.94;4990247;28;20191;-72
2023/05/29 11:00:49;;;;;;;8.07;2.50;;;;;;;23.04;41.09;102318.44;5006716;28;20210;-74
2023/05/29 11:03:21;;;;;;;10.07;3.00;;;;;;;23.24;39.73;102282.56;4986974;28;20187;-77
2023/05/29 11:06:10;;;;;;;10.07;3.10;;;;;;;23.37;40.43;102313.81;4985021;28;20593;-77
2023/05/29 11:08:42;;;;;;;7.80;3.10;;;;;;;23.17;39.04;102297.41;5011876;28;20199;-74
2023/05/29 11:11:11;;;;;;;6.87;2.63;;;;;;;23.26;39.84;102306.94;5012292;28;20222;-74
2023/05/29 11:13:37;;;;;;;5.63;2.90;;;;;;;23.21;38.62;102288.66;4992578;28;21960;-76
2023/05/29 11:16:13;;;;;;;6.17;2.20;;;;;;;23.22;39.41;102315.69;5011766;28;20203;-74